Calf Creek, Texas
Current Conditions -  °F | °C
As of 8:55 PM on Friday 19 Dec 2014 (Local Time) from KBBD Reporting Station
Overcast Overcast  
Wind Chill: 48°   Ceiling: 1200
Heat Index: 48°   Visibility: 10mi
Dew Point: 43°   Wind: 3mph
Humidity: 82%   Direction: 100°E
Pressure: 30.17"   Gusts: NA
Location:  31.063°N, 99.3372°W
Report Text: KBBD 200255Z AUTO 10003KT 10SM OVC012 09/06 A3017 RMK
Loading
Personal Weather Stations






























Interactive Weather Map New forecast layout! Learn more

10-Day Weather Forecast

Advertisements
Track Severe Weather on mobile